Time,TemperatureF,DewpointF,PressureIn,WindDirection,WindDirectionDegrees,WindSpeedMPH,WindSpeedGustMPH,Humidity,HourlyPrecipIn,Conditions,Clouds,dailyrainin,SoftwareType,DateUTC
2013-02-24 00:00:00,-999.9,-99.9,29.88,North,32767,-999.0,5.0,255,-99.99,,,0.00,Wunderground v.1.15,2013-02-24 05:00:00,
2013-02-24 00:02:00,-999.9,-99.9,29.88,North,32767,-999.0,5.0,255,-99.99,,,0.00,Wunderground v.1.15,2013-02-24 05:02:00,
2013-02-24 00:04:00,-999.9,-99.9,29.88,North,32767,-999.0,5.0,255,-99.99,,,0.00,Wunderground v.1.15,2013-02-24 05:04:00,
2013-02-24 00:12:00,-999.9,-99.9,29.88,North,32767,-999.0,5.0,255,-99.99,,,0.00,Wunderground v.1.15,2013-02-24 05:12:00,
2013-02-24 00:16:00,-999.9,-99.9,29.88,North,32767,-999.0,5.0,255,-99.99,,,0.00,Wunderground v.1.15,2013-02-24 05:16:00,
2013-02-24 00:22:00,-999.9,-99.9,29.89,North,32767,-999.0,5.0,255,-99.99,,,0.00,Wunderground v.1.15,2013-02-24 05:22:00,
2013-02-24 00:28:00,-999.9,-99.9,29.89,North,32767,-999.0,5.0,255,-99.99,,,0.00,Wunderground v.1.15,2013-02-24 05:28:00,
2013-02-24 00:34:00,-999.9,-99.9,29.90,North,32767,-999.0,5.0,255,-99.99,,,0.00,Wunderground v.1.15,2013-02-24 05:34:00,
2013-02-24 00:40:00,-999.9,-99.9,29.90,North,32767,-999.0,5.0,255,-99.99,,,0.00,Wunderground v.1.15,2013-02-24 05:40:00,
2013-02-24 00:46:00,-999.9,-99.9,29.90,North,32767,-999.0,5.0,255,-99.99,,,0.00,Wunderground v.1.15,2013-02-24 05:46:00,
2013-02-24 00:52:00,-999.9,-99.9,29.90,North,32767,-999.0,5.0,255,-99.99,,,0.00,Wunderground v.1.15,2013-02-24 05:52:00,
2013-02-24 00:58:00,-999.9,-99.9,29.90,North,32767,-999.0,5.0,255,-99.99,,,0.00,Wunderground v.1.15,2013-02-24 05:58:00,
2013-02-24 01:04:00,-999.9,-99.9,29.90,North,32767,-999.0,5.0,255,-99.99,,,0.00,Wunderground v.1.15,2013-02-24 06:04:00,
2013-02-24 01:10:00,-999.9,-99.9,29.90,North,32767,-999.0,5.0,255,-99.99,,,0.00,Wunderground v.1.15,2013-02-24 06:10:00,
2013-02-24 01:16:00,-999.9,-99.9,29.90,North,32767,-999.0,5.0,255,-99.99,,,0.00,Wunderground v.1.15,2013-02-24 06:16:00,
2013-02-24 01:22:00,-999.9,-99.9,29.90,North,32767,-999.0,5.0,255,-99.99,,,0.00,Wunderground v.1.15,2013-02-24 06:22:00,
2013-02-24 01:28:00,-999.9,-99.9,29.90,North,32767,-999.0,5.0,255,-99.99,,,0.00,Wunderground v.1.15,2013-02-24 06:28:00,
2013-02-24 01:34:00,-999.9,-99.9,29.91,North,32767,-999.0,5.0,255,-99.99,,,0.00,Wunderground v.1.15,2013-02-24 06:34:00,
2013-02-24 01:40:00,-999.9,-99.9,29.91,North,32767,-999.0,5.0,255,-99.99,,,0.00,Wunderground v.1.15,2013-02-24 06:40:00,
2013-02-24 01:46:00,-999.9,-99.9,29.91,North,32767,-999.0,5.0,255,-99.99,,,0.00,Wunderground v.1.15,2013-02-24 06:46:00,
2013-02-24 01:52:00,-999.9,-99.9,29.90,North,32767,-999.0,5.0,255,-99.99,,,0.00,Wunderground v.1.15,2013-02-24 06:52:00,
2013-02-24 09:58:00,30.9,22.9,29.96,WSW,258,9.0,10.0,72,0.00,,,0.00,Wunderground v.1.15,2013-02-24 14:58:00,
2013-02-24 10:04:00,31.2,22.9,30.07,WNW,297,8.0,11.0,71,0.00,,,0.00,Wunderground v.1.15,2013-02-24 15:04:00,
2013-02-24 10:10:00,31.2,23.2,30.07,West,278,6.0,10.0,72,0.00,,,0.00,Wunderground v.1.15,2013-02-24 15:10:00,
2013-02-24 10:16:00,30.9,22.9,30.07,SW,229,8.0,10.0,72,0.00,,,0.00,Wunderground v.1.15,2013-02-24 15:16:00,
2013-02-24 10:22:00,31.0,23.0,30.07,WSW,243,8.0,10.0,72,0.00,,,0.00,Wunderground v.1.15,2013-02-24 15:22:00,
2013-02-24 10:28:00,31.0,22.7,30.07,West,281,8.0,15.0,71,0.00,,,0.00,Wunderground v.1.15,2013-02-24 15:28:00,
2013-02-24 10:34:00,30.9,22.6,30.08,WSW,246,9.0,13.0,71,0.00,,,0.00,Wunderground v.1.15,2013-02-24 15:34:00,
2013-02-24 10:40:00,30.7,22.4,30.08,West,266,10.0,11.0,71,0.00,,,0.00,Wunderground v.1.15,2013-02-24 15:40:00,
2013-02-24 10:46:00,30.6,22.3,30.08,WNW,294,10.0,11.0,71,0.00,,,0.00,Wunderground v.1.15,2013-02-24 15:46:00,
2013-02-24 10:52:00,30.7,22.7,30.08,West,266,8.0,8.0,72,0.00,,,0.00,Wunderground v.1.15,2013-02-24 15:52:00,
2013-02-24 10:58:00,30.6,22.6,30.08,WSW,238,8.0,14.0,72,0.00,,,0.00,Wunderground v.1.15,2013-02-24 15:58:00,
2013-02-24 11:04:00,30.4,22.8,30.08,West,267,9.0,11.0,73,0.00,,,0.00,Wunderground v.1.15,2013-02-24 16:04:00,
2013-02-24 11:10:00,30.1,22.2,30.08,West,276,10.0,10.0,72,0.00,,,0.00,Wunderground v.1.15,2013-02-24 16:10:00,
2013-02-24 11:16:00,30.1,22.5,30.08,WNW,284,9.0,11.0,73,0.00,,,0.00,Wunderground v.1.15,2013-02-24 16:16:00,
2013-02-24 11:22:00,30.4,22.8,30.08,West,266,7.0,9.0,73,0.00,,,0.00,Wunderground v.1.15,2013-02-24 16:22:00,
2013-02-24 11:28:00,30.6,22.6,30.08,West,266,7.0,11.0,72,0.00,,,0.00,Wunderground v.1.15,2013-02-24 16:28:00,
2013-02-24 11:34:00,30.3,22.4,30.09,WSW,253,10.0,11.0,72,0.00,,,0.00,Wunderground v.1.15,2013-02-24 16:34:00,
2013-02-24 11:40:00,30.3,22.0,30.09,WSW,248,10.0,10.0,71,0.00,,,0.00,Wunderground v.1.15,2013-02-24 16:40:00,
2013-02-24 11:46:00,30.1,21.8,30.09,WSW,245,11.0,14.0,71,0.00,,,0.00,Wunderground v.1.15,2013-02-24 16:46:00,
2013-02-24 11:52:00,29.8,21.9,30.09,West,274,11.0,11.0,72,0.00,,,0.00,Wunderground v.1.15,2013-02-24 16:52:00,
2013-02-24 11:58:00,29.5,21.6,30.09,West,266,10.0,12.0,72,0.00,,,0.00,Wunderground v.1.15,2013-02-24 16:58:00,
2013-02-24 12:04:00,29.7,21.8,30.10,WSW,243,9.0,13.0,72,0.00,,,0.00,Wunderground v.1.15,2013-02-24 17:04:00,
2013-02-24 12:10:00,29.5,21.6,30.10,WSW,238,9.0,12.0,72,0.00,,,0.00,Wunderground v.1.15,2013-02-24 17:10:00,
2013-02-24 12:16:00,29.5,21.6,30.10,West,263,11.0,15.0,72,0.00,,,0.00,Wunderground v.1.15,2013-02-24 17:16:00,
2013-02-24 12:22:00,29.1,21.2,30.10,SW,216,12.0,12.0,72,0.00,,,0.00,Wunderground v.1.15,2013-02-24 17:22:00,
2013-02-24 12:28:00,29.0,21.1,30.10,West,266,12.0,13.0,72,0.00,,,0.00,Wunderground v.1.15,2013-02-24 17:28:00,
2013-02-24 12:34:00,29.0,21.1,30.10,West,262,12.0,16.0,72,0.00,,,0.00,Wunderground v.1.15,2013-02-24 17:34:00,
2013-02-24 12:40:00,29.1,20.9,30.10,West,262,9.0,11.0,71,0.00,,,0.00,Wunderground v.1.15,2013-02-24 17:40:00,
2013-02-24 12:46:00,28.8,20.6,30.10,WNW,284,10.0,13.0,71,0.00,,,0.00,Wunderground v.1.15,2013-02-24 17:46:00,
2013-02-24 12:52:00,28.8,20.6,30.10,West,262,10.0,13.0,71,0.00,,,0.00,Wunderground v.1.15,2013-02-24 17:52:00,
2013-02-24 12:58:00,29.1,20.5,30.10,WNW,287,9.0,13.0,70,0.00,,,0.00,Wunderground v.1.15,2013-02-24 17:58:00,
2013-02-24 13:04:00,29.1,20.5,30.10,WNW,293,9.0,12.0,70,0.00,,,0.00,Wunderground v.1.15,2013-02-24 18:04:00,
2013-02-24 13:10:00,29.1,20.5,30.10,WSW,243,9.0,10.0,70,0.00,,,0.00,Wunderground v.1.15,2013-02-24 18:10:00,
2013-02-24 13:16:00,29.3,20.7,30.10,West,267,9.0,10.0,70,0.00,,,0.00,Wunderground v.1.15,2013-02-24 18:16:00,
2013-02-24 13:22:00,29.3,20.7,30.10,WSW,257,9.0,9.0,70,0.00,,,0.00,Wunderground v.1.15,2013-02-24 18:22:00,
2013-02-24 13:28:00,29.1,20.5,30.10,West,273,10.0,13.0,70,0.00,,,0.00,Wunderground v.1.15,2013-02-24 18:28:00,
2013-02-24 13:34:00,29.1,20.5,30.10,West,274,10.0,11.0,70,0.00,,,0.00,Wunderground v.1.15,2013-02-24 18:34:00,
2013-02-24 13:40:00,29.0,20.8,30.10,West,274,10.0,10.0,71,0.00,,,0.00,Wunderground v.1.15,2013-02-24 18:40:00,
2013-02-24 13:46:00,29.0,21.1,30.10,West,262,10.0,13.0,72,0.00,,,0.00,Wunderground v.1.15,2013-02-24 18:46:00,
2013-02-24 13:52:00,28.8,20.9,30.11,WNW,288,10.0,10.0,72,0.00,,,0.00,Wunderground v.1.15,2013-02-24 18:52:00,
2013-02-24 13:58:00,28.8,20.9,30.11,WSW,238,9.0,11.0,72,0.00,,,0.00,Wunderground v.1.15,2013-02-24 18:58:00,
2013-02-24 14:04:00,28.7,21.1,30.11,WNW,300,9.0,9.0,73,0.00,,,0.00,Wunderground v.1.15,2013-02-24 19:04:00,
2013-02-24 14:10:00,28.7,21.1,30.11,WNW,296,9.0,10.0,73,0.00,,,0.00,Wunderground v.1.15,2013-02-24 19:10:00,
2013-02-24 14:16:00,28.5,20.9,30.11,WNW,292,9.0,10.0,73,0.00,,,0.00,Wunderground v.1.15,2013-02-24 19:16:00,
2013-02-24 14:22:00,28.5,20.9,30.12,WNW,286,7.0,8.0,73,0.00,,,0.00,Wunderground v.1.15,2013-02-24 19:22:00,
2013-02-24 14:28:00,28.5,21.3,30.12,NW,314,8.0,11.0,74,0.00,,,0.00,Wunderground v.1.15,2013-02-24 19:28:00,
2013-02-24 14:34:00,28.4,21.2,30.12,NW,304,10.0,10.0,74,0.00,,,0.00,Wunderground v.1.15,2013-02-24 19:34:00,
2013-02-24 14:40:00,28.2,21.0,30.12,WNW,300,11.0,13.0,74,0.00,,,0.00,Wunderground v.1.15,2013-02-24 19:40:00,
2013-02-24 14:46:00,28.2,21.3,30.12,WNW,289,10.0,14.0,75,0.00,,,0.00,Wunderground v.1.15,2013-02-24 19:46:00,
2013-02-24 14:52:00,28.2,21.3,30.13,WNW,290,8.0,10.0,75,0.00,,,0.00,Wunderground v.1.15,2013-02-24 19:52:00,
2013-02-24 14:58:00,28.2,21.3,30.13,WNW,288,8.0,13.0,75,0.00,,,0.00,Wunderground v.1.15,2013-02-24 19:58:00,
2013-02-24 15:04:00,28.1,21.5,30.14,NW,321,8.0,11.0,76,0.00,,,0.00,Wunderground v.1.15,2013-02-24 20:04:00,
2013-02-24 15:10:00,28.1,21.8,30.14,West,271,8.0,8.0,77,0.00,,,0.00,Wunderground v.1.15,2013-02-24 20:10:00,
2013-02-24 15:16:00,28.1,21.8,30.14,West,276,8.0,11.0,77,0.00,,,0.00,Wunderground v.1.15,2013-02-24 20:16:00,
2013-02-24 15:22:00,28.1,22.1,30.14,NW,309,8.0,8.0,78,0.00,,,0.00,Wunderground v.1.15,2013-02-24 20:22:00,
2013-02-24 15:28:00,27.6,22.2,30.14,WNW,288,9.0,11.0,80,0.00,,,0.00,Wunderground v.1.15,2013-02-24 20:28:00,
2013-02-24 15:34:00,27.6,22.2,30.15,WNW,288,5.0,10.0,80,0.00,,,0.00,Wunderground v.1.15,2013-02-24 20:34:00,
2013-02-24 15:40:00,-999.9,-99.9,30.15,North,32767,-999.0,5.0,255,-99.99,,,0.00,Wunderground v.1.15,2013-02-24 20:40:00,
2013-02-24 15:46:00,-999.9,-99.9,30.15,North,32767,-999.0,5.0,255,-99.99,,,0.00,Wunderground v.1.15,2013-02-24 20:46:00,
2013-02-24 15:52:00,-999.9,-99.9,30.03,North,32767,-999.0,5.0,255,-99.99,,,0.00,Wunderground v.1.15,2013-02-24 20:52:00,
2013-02-24 15:58:00,26.7,23.4,30.03,West,272,6.0,9.0,87,0.00,,,0.00,Wunderground v.1.15,2013-02-24 20:58:00,
2013-02-24 16:04:00,26.7,23.4,30.17,WNW,302,5.0,7.0,87,0.00,,,0.00,Wunderground v.1.15,2013-02-24 21:04:00,
2013-02-24 16:10:00,26.9,23.5,30.17,WNW,290,5.0,5.0,87,0.00,,,0.00,Wunderground v.1.15,2013-02-24 21:10:00,
2013-02-24 16:16:00,26.9,23.3,30.17,WNW,300,5.0,9.0,86,0.00,,,0.00,Wunderground v.1.15,2013-02-24 21:16:00,
2013-02-24 16:22:00,26.9,23.3,30.17,West,262,6.0,6.0,86,0.00,,,0.00,Wunderground v.1.15,2013-02-24 21:22:00,
2013-02-24 16:28:00,26.9,23.3,30.17,West,262,5.0,6.0,86,0.00,,,0.00,Wunderground v.1.15,2013-02-24 21:28:00,
2013-02-24 16:34:00,-999.9,-99.9,30.05,North,32767,-999.0,5.0,255,-99.99,,,0.00,Wunderground v.1.15,2013-02-24 21:34:00,
2013-02-24 16:40:00,-999.9,-99.9,30.05,North,32767,-999.0,5.0,255,-99.99,,,0.00,Wunderground v.1.15,2013-02-24 21:40:00,
2013-02-24 16:46:00,-999.9,-99.9,30.05,North,32767,-999.0,5.0,255,-99.99,,,0.00,Wunderground v.1.15,2013-02-24 21:46:00,
2013-02-24 16:52:00,-999.9,-99.9,30.05,North,32767,-999.0,5.0,255,-99.99,,,0.00,Wunderground v.1.15,2013-02-24 21:52:00,
2013-02-24 16:58:00,-999.9,-99.9,30.05,North,32767,-999.0,5.0,255,-99.99,,,0.00,Wunderground v.1.15,2013-02-24 21:58:00,
2013-02-24 17:04:00,-999.9,-99.9,30.06,North,32767,-999.0,5.0,255,-99.99,,,0.00,Wunderground v.1.15,2013-02-24 22:04:00,
2013-02-24 17:10:00,-999.9,-99.9,30.06,North,32767,-999.0,5.0,255,-99.99,,,0.00,Wunderground v.1.15,2013-02-24 22:10:00,
2013-02-24 17:16:00,-999.9,-99.9,30.06,North,32767,-999.0,5.0,255,-99.99,,,0.00,Wunderground v.1.15,2013-02-24 22:16:00,
2013-02-24 17:22:00,-999.9,-99.9,30.08,North,32767,-999.0,5.0,255,-99.99,,,0.00,Wunderground v.1.15,2013-02-24 22:22:00,
2013-02-24 17:28:00,-999.9,-99.9,30.08,North,32767,-999.0,5.0,255,-99.99,,,0.00,Wunderground v.1.15,2013-02-24 22:28:00,
2013-02-24 17:34:00,-999.9,-99.9,30.08,North,32767,-999.0,5.0,255,-99.99,,,0.00,Wunderground v.1.15,2013-02-24 22:34:00,
2013-02-24 17:40:00,-999.9,-99.9,30.08,North,32767,-999.0,5.0,255,-99.99,,,0.00,Wunderground v.1.15,2013-02-24 22:40:00,
2013-02-24 17:46:00,-999.9,-99.9,30.08,North,32767,-999.0,5.0,255,-99.99,,,0.00,Wunderground v.1.15,2013-02-24 22:46:00,
2013-02-24 17:52:00,-999.9,-99.9,30.08,North,32767,-999.0,5.0,255,-99.99,,,0.00,Wunderground v.1.15,2013-02-24 22:52:00,
2013-02-24 17:58:00,-999.9,-99.9,30.08,North,32767,-999.0,5.0,255,-99.99,,,0.00,Wunderground v.1.15,2013-02-24 22:58:00,
2013-02-24 18:04:00,-999.9,-99.9,30.08,North,32767,-999.0,5.0,255,-99.99,,,0.00,Wunderground v.1.15,2013-02-24 23:04:00,
2013-02-24 18:10:00,-999.9,-99.9,30.08,North,32767,-999.0,5.0,255,-99.99,,,0.00,Wunderground v.1.15,2013-02-24 23:10:00,
2013-02-24 18:16:00,-999.9,-99.9,30.08,North,32767,-999.0,5.0,255,-99.99,,,0.00,Wunderground v.1.15,2013-02-24 23:16:00,
2013-02-24 18:22:00,-999.9,-99.9,30.09,North,32767,-999.0,5.0,255,-99.99,,,0.00,Wunderground v.1.15,2013-02-24 23:22:00,
2013-02-24 18:28:00,-999.9,-99.9,30.09,North,32767,-999.0,5.0,255,-99.99,,,0.00,Wunderground v.1.15,2013-02-24 23:28:00,
2013-02-24 18:34:00,-999.9,-99.9,30.10,North,32767,-999.0,5.0,255,-99.99,,,0.00,Wunderground v.1.15,2013-02-24 23:34:00,
2013-02-24 18:40:00,-999.9,-99.9,30.10,North,32767,-999.0,5.0,255,-99.99,,,0.00,Wunderground v.1.15,2013-02-24 23:40:00,
2013-02-24 18:46:00,-999.9,-99.9,30.10,North,32767,-999.0,5.0,255,-99.99,,,0.00,Wunderground v.1.15,2013-02-24 23:46:00,
2013-02-24 18:52:00,-999.9,-99.9,30.10,North,32767,-999.0,5.0,255,-99.99,,,0.00,Wunderground v.1.15,2013-02-24 23:52:00,
2013-02-24 18:58:00,-999.9,-99.9,30.10,North,32767,-999.0,5.0,255,-99.99,,,0.00,Wunderground v.1.15,2013-02-24 23:58:00,
2013-02-24 19:04:00,-999.9,-99.9,30.11,North,32767,-999.0,5.0,255,-99.99,,,0.00,Wunderground v.1.15,2013-02-25 00:04:00,
2013-02-24 19:10:00,-999.9,-99.9,30.11,North,32767,-999.0,5.0,255,-99.99,,,0.00,Wunderground v.1.15,2013-02-25 00:10:00,
2013-02-24 19:16:00,-999.9,-99.9,30.11,North,32767,-999.0,5.0,255,-99.99,,,0.00,Wunderground v.1.15,2013-02-25 00:16:00,
2013-02-24 19:22:00,-999.9,-99.9,30.11,North,32767,-999.0,5.0,255,-99.99,,,0.00,Wunderground v.1.15,2013-02-25 00:22:00,
2013-02-24 19:28:00,-999.9,-99.9,30.11,North,32767,-999.0,5.0,255,-99.99,,,0.00,Wunderground v.1.15,2013-02-25 00:28:00,
2013-02-24 19:34:00,-999.9,-99.9,30.11,North,32767,-999.0,5.0,255,-99.99,,,0.00,Wunderground v.1.15,2013-02-25 00:34:00,
2013-02-24 19:40:00,-999.9,-99.9,30.11,North,32767,-999.0,5.0,255,-99.99,,,0.00,Wunderground v.1.15,2013-02-25 00:40:00,
2013-02-24 19:46:00,-999.9,-99.9,30.11,North,32767,-999.0,5.0,255,-99.99,,,0.00,Wunderground v.1.15,2013-02-25 00:46:00,
2013-02-24 19:52:00,-999.9,-99.9,30.12,North,32767,-999.0,5.0,255,-99.99,,,0.00,Wunderground v.1.15,2013-02-25 00:52:00,
2013-02-24 19:58:00,-999.9,-99.9,30.12,North,32767,-999.0,5.0,255,-99.99,,,0.00,Wunderground v.1.15,2013-02-25 00:58:00,
2013-02-24 20:04:00,-999.9,-99.9,30.12,North,32767,-999.0,5.0,255,-99.99,,,0.00,Wunderground v.1.15,2013-02-25 01:04:00,
2013-02-24 20:10:00,-999.9,-99.9,30.12,North,32767,-999.0,5.0,255,-99.99,,,0.00,Wunderground v.1.15,2013-02-25 01:10:00,
2013-02-24 20:16:00,-999.9,-99.9,30.12,North,32767,-999.0,5.0,255,-99.99,,,0.00,Wunderground v.1.15,2013-02-25 01:16:00,
2013-02-24 20:22:00,-999.9,-99.9,30.12,North,32767,-999.0,5.0,255,-99.99,,,0.00,Wunderground v.1.15,2013-02-25 01:22:00,
2013-02-24 20:28:00,-999.9,-99.9,30.12,North,32767,-999.0,5.0,255,-99.99,,,0.00,Wunderground v.1.15,2013-02-25 01:28:00,
2013-02-24 20:34:00,-999.9,-99.9,30.12,North,32767,-999.0,5.0,255,-99.99,,,0.00,Wunderground v.1.15,2013-02-25 01:34:00,
2013-02-24 20:40:00,-999.9,-99.9,30.12,North,32767,-999.0,5.0,255,-99.99,,,0.00,Wunderground v.1.15,2013-02-25 01:40:00,
2013-02-24 20:46:00,-999.9,-99.9,30.12,North,32767,-999.0,5.0,255,-99.99,,,0.00,Wunderground v.1.15,2013-02-25 01:46:00,
2013-02-24 20:52:00,-999.9,-99.9,30.12,North,32767,-999.0,5.0,255,-99.99,,,0.00,Wunderground v.1.15,2013-02-25 01:52:00,
2013-02-24 20:58:00,-999.9,-99.9,30.12,North,32767,-999.0,5.0,255,-99.99,,,0.00,Wunderground v.1.15,2013-02-25 01:58:00,
2013-02-24 21:04:00,-999.9,-99.9,30.11,North,32767,-999.0,5.0,255,-99.99,,,0.00,Wunderground v.1.15,2013-02-25 02:04:00,
2013-02-24 21:10:00,-999.9,-99.9,30.11,North,32767,-999.0,5.0,255,-99.99,,,0.00,Wunderground v.1.15,2013-02-25 02:10:00,
2013-02-24 21:16:00,-999.9,-99.9,30.11,North,32767,-999.0,5.0,255,-99.99,,,0.00,Wunderground v.1.15,2013-02-25 02:16:00,
2013-02-24 21:22:00,-999.9,-99.9,30.11,North,32767,-999.0,5.0,255,-99.99,,,0.00,Wunderground v.1.15,2013-02-25 02:22:00,
2013-02-24 21:28:00,-999.9,-99.9,30.11,North,32767,-999.0,5.0,255,-99.99,,,0.00,Wunderground v.1.15,2013-02-25 02:28:00,
2013-02-24 21:34:00,-999.9,-99.9,30.11,North,32767,-999.0,5.0,255,-99.99,,,0.00,Wunderground v.1.15,2013-02-25 02:34:00,
2013-02-24 21:40:00,-999.9,-99.9,30.11,North,32767,-999.0,5.0,255,-99.99,,,0.00,Wunderground v.1.15,2013-02-25 02:40:00,
2013-02-24 21:46:00,-999.9,-99.9,30.11,North,32767,-999.0,5.0,255,-99.99,,,0.00,Wunderground v.1.15,2013-02-25 02:46:00,
2013-02-24 21:52:00,-999.9,-99.9,30.22,North,32767,-999.0,5.0,255,-99.99,,,0.00,Wunderground v.1.15,2013-02-25 02:52:00,
2013-02-24 21:58:00,-999.9,-99.9,30.22,North,32767,-999.0,5.0,255,-99.99,,,0.00,Wunderground v.1.15,2013-02-25 02:58:00,
2013-02-24 22:04:00,-999.9,-99.9,30.22,North,32767,-999.0,5.0,255,-99.99,,,0.00,Wunderground v.1.15,2013-02-25 03:04:00,
2013-02-24 22:10:00,-999.9,-99.9,30.22,North,32767,-999.0,5.0,255,-99.99,,,0.00,Wunderground v.1.15,2013-02-25 03:10:00,
2013-02-24 22:16:00,-999.9,-99.9,30.22,North,32767,-999.0,5.0,255,-99.99,,,0.00,Wunderground v.1.15,2013-02-25 03:16:00,
2013-02-24 22:22:00,-999.9,-99.9,30.22,North,32767,-999.0,5.0,255,-99.99,,,0.00,Wunderground v.1.15,2013-02-25 03:22:00,
2013-02-24 22:28:00,-999.9,-99.9,30.22,North,32767,-999.0,5.0,255,-99.99,,,0.00,Wunderground v.1.15,2013-02-25 03:28:00,
2013-02-24 22:34:00,-999.9,-99.9,30.22,North,32767,-999.0,5.0,255,-99.99,,,0.00,Wunderground v.1.15,2013-02-25 03:34:00,
2013-02-24 22:40:00,-999.9,-99.9,30.22,North,32767,-999.0,5.0,255,-99.99,,,0.00,Wunderground v.1.15,2013-02-25 03:40:00,
2013-02-24 22:46:00,-999.9,-99.9,30.22,North,32767,-999.0,5.0,255,-99.99,,,0.00,Wunderground v.1.15,2013-02-25 03:46:00,
2013-02-24 22:52:00,-999.9,-99.9,30.22,North,32767,-999.0,5.0,255,-99.99,,,0.00,Wunderground v.1.15,2013-02-25 03:52:00,
2013-02-24 22:58:00,-999.9,-99.9,30.22,North,32767,-999.0,5.0,255,-99.99,,,0.00,Wunderground v.1.15,2013-02-25 03:58:00,
2013-02-24 23:04:00,-999.9,-99.9,30.22,North,32767,-999.0,5.0,255,-99.99,,,0.00,Wunderground v.1.15,2013-02-25 04:04:00,
2013-02-24 23:10:00,-999.9,-99.9,30.22,North,32767,-999.0,5.0,255,-99.99,,,0.00,Wunderground v.1.15,2013-02-25 04:10:00,
2013-02-24 23:18:00,-999.9,-99.9,30.22,North,32767,-999.0,5.0,255,-99.99,,,0.00,Wunderground v.1.15,2013-02-25 04:18:00,
2013-02-24 23:24:00,-999.9,-99.9,30.22,North,32767,-999.0,5.0,255,-99.99,,,0.00,Wunderground v.1.15,2013-02-25 04:24:00,
2013-02-24 23:30:00,-999.9,-99.9,30.22,North,32767,-999.0,5.0,255,-99.99,,,0.00,Wunderground v.1.15,2013-02-25 04:30:00,
2013-02-24 23:36:00,-999.9,-99.9,30.22,North,32767,-999.0,5.0,255,-99.99,,,0.00,Wunderground v.1.15,2013-02-25 04:36:00,
2013-02-24 23:42:00,-999.9,-99.9,30.22,North,32767,-999.0,5.0,255,-99.99,,,0.00,Wunderground v.1.15,2013-02-25 04:42:00,
2013-02-24 23:48:00,-999.9,-99.9,30.23,North,32767,-999.0,5.0,255,-99.99,,,0.00,Wunderground v.1.15,2013-02-25 04:48:00,
2013-02-24 23:54:00,-999.9,-99.9,30.23,North,32767,-999.0,5.0,255,-99.99,,,0.00,Wunderground v.1.15,2013-02-25 04:54:00,